sensor_id;sensor_type;location;lat;lon;timestamp;temperature;humidity
34837;DHT22;21053;50.848;4.652;2023-04-15T00:00:29;9.40;99.90
34837;DHT22;21053;50.848;4.652;2023-04-15T00:02:57;9.50;99.90
34837;DHT22;21053;50.848;4.652;2023-04-15T00:05:25;9.50;99.90
34837;DHT22;21053;50.848;4.652;2023-04-15T00:07:57;9.40;99.90
34837;DHT22;21053;50.848;4.652;2023-04-15T00:10:27;9.20;99.90
34837;DHT22;21053;50.848;4.652;2023-04-15T00:12:55;9.10;99.90
34837;DHT22;21053;50.848;4.652;2023-04-15T00:15:22;9.10;99.90
34837;DHT22;21053;50.848;4.652;2023-04-15T00:17:50;9.20;99.90
34837;DHT22;21053;50.848;4.652;2023-04-15T00:20:18;9.50;99.90
34837;DHT22;21053;50.848;4.652;2023-04-15T00:22:47;9.50;99.90
34837;DHT22;21053;50.848;4.652;2023-04-15T00:25:14;9.70;99.90
34837;DHT22;21053;50.848;4.652;2023-04-15T00:27:40;9.60;99.90
34837;DHT22;21053;50.848;4.652;2023-04-15T00:30:06;9.50;99.90
34837;DHT22;21053;50.848;4.652;2023-04-15T00:32:34;9.30;99.90
34837;DHT22;21053;50.848;4.652;2023-04-15T00:35:00;9.30;99.90
34837;DHT22;21053;50.848;4.652;2023-04-15T00:37:26;9.40;99.90
34837;DHT22;21053;50.848;4.652;2023-04-15T00:39:52;9.50;99.90
34837;DHT22;21053;50.848;4.652;2023-04-15T00:42:18;9.50;99.90
34837;DHT22;21053;50.848;4.652;2023-04-15T00:44:46;9.60;99.90
34837;DHT22;21053;50.848;4.652;2023-04-15T00:47:13;9.60;99.90
34837;DHT22;21053;50.848;4.652;2023-04-15T00:49:47;9.60;99.90
34837;DHT22;21053;50.848;4.652;2023-04-15T00:52:12;9.60;99.90
34837;DHT22;21053;50.848;4.652;2023-04-15T00:54:42;9.60;99.90
34837;DHT22;21053;50.848;4.652;2023-04-15T00:57:11;9.60;99.90
34837;DHT22;21053;50.848;4.652;2023-04-15T00:59:37;9.60;99.90
34837;DHT22;21053;50.848;4.652;2023-04-15T01:02:14;9.70;99.90
34837;DHT22;21053;50.848;4.652;2023-04-15T01:04:46;9.70;99.90
34837;DHT22;21053;50.848;4.652;2023-04-15T01:07:18;9.70;99.90
34837;DHT22;21053;50.848;4.652;2023-04-15T01:09:46;9.70;99.90
34837;DHT22;21053;50.848;4.652;2023-04-15T01:12:14;9.60;99.90
34837;DHT22;21053;50.848;4.652;2023-04-15T01:14:42;9.60;99.90
34837;DHT22;21053;50.848;4.652;2023-04-15T01:17:10;9.60;99.90
34837;DHT22;21053;50.848;4.652;2023-04-15T01:19:37;9.60;99.90
34837;DHT22;21053;50.848;4.652;2023-04-15T01:22:03;9.60;99.90
34837;DHT22;21053;50.848;4.652;2023-04-15T01:24:31;9.60;99.90
34837;DHT22;21053;50.848;4.652;2023-04-15T01:27:01;9.40;99.90
34837;DHT22;21053;50.848;4.652;2023-04-15T01:29:31;9.30;99.90
34837;DHT22;21053;50.848;4.652;2023-04-15T01:32:00;9.40;99.90
34837;DHT22;21053;50.848;4.652;2023-04-15T01:34:29;9.50;99.90
34837;DHT22;21053;50.848;4.652;2023-04-15T01:37:01;9.60;99.90
34837;DHT22;21053;50.848;4.652;2023-04-15T01:39:28;9.50;99.90
34837;DHT22;21053;50.848;4.652;2023-04-15T01:41:59;9.50;99.90
34837;DHT22;21053;50.848;4.652;2023-04-15T01:44:26;9.40;99.90
34837;DHT22;21053;50.848;4.652;2023-04-15T01:46:53;9.10;99.90
34837;DHT22;21053;50.848;4.652;2023-04-15T01:49:18;9.10;99.90
34837;DHT22;21053;50.848;4.652;2023-04-15T01:51:44;9.30;99.90
34837;DHT22;21053;50.848;4.652;2023-04-15T01:54:11;9.50;99.90
34837;DHT22;21053;50.848;4.652;2023-04-15T01:56:37;9.50;99.90
34837;DHT22;21053;50.848;4.652;2023-04-15T02:01:30;9.40;99.90
34837;DHT22;21053;50.848;4.652;2023-04-15T02:03:59;9.50;99.90
34837;DHT22;21053;50.848;4.652;2023-04-15T02:06:28;9.60;99.90
34837;DHT22;21053;50.848;4.652;2023-04-15T02:08:57;9.60;99.90
34837;DHT22;21053;50.848;4.652;2023-04-15T02:11:24;9.30;99.90
34837;DHT22;21053;50.848;4.652;2023-04-15T02:13:50;9.20;99.90
34837;DHT22;21053;50.848;4.652;2023-04-15T02:16:22;9.40;99.90
34837;DHT22;21053;50.848;4.652;2023-04-15T02:18:49;9.50;99.90
34837;DHT22;21053;50.848;4.652;2023-04-15T02:21:16;9.60;99.90
34837;DHT22;21053;50.848;4.652;2023-04-15T02:23:44;9.60;99.90
34837;DHT22;21053;50.848;4.652;2023-04-15T02:26:11;9.60;99.90
34837;DHT22;21053;50.848;4.652;2023-04-15T02:28:37;9.60;99.90
34837;DHT22;21053;50.848;4.652;2023-04-15T02:31:08;9.30;99.90
34837;DHT22;21053;50.848;4.652;2023-04-15T02:33:36;9.40;99.90
34837;DHT22;21053;50.848;4.652;2023-04-15T02:36:03;9.40;99.90
34837;DHT22;21053;50.848;4.652;2023-04-15T02:38:32;9.30;99.90
34837;DHT22;21053;50.848;4.652;2023-04-15T02:40:58;9.30;99.90
34837;DHT22;21053;50.848;4.652;2023-04-15T02:43:27;9.50;99.90
34837;DHT22;21053;50.848;4.652;2023-04-15T02:46:01;9.50;99.90
34837;DHT22;21053;50.848;4.652;2023-04-15T02:48:28;9.50;99.90
34837;DHT22;21053;50.848;4.652;2023-04-15T02:51:12;9.70;99.90
34837;DHT22;21053;50.848;4.652;2023-04-15T02:53:41;9.80;99.90
34837;DHT22;21053;50.848;4.652;2023-04-15T02:56:09;9.80;99.90
34837;DHT22;21053;50.848;4.652;2023-04-15T02:58:39;9.70;99.90
34837;DHT22;21053;50.848;4.652;2023-04-15T03:01:07;9.70;99.90
34837;DHT22;21053;50.848;4.652;2023-04-15T03:03:35;9.70;99.90
34837;DHT22;21053;50.848;4.652;2023-04-15T03:06:02;9.80;99.90
34837;DHT22;21053;50.848;4.652;2023-04-15T03:08:28;9.70;99.90
34837;DHT22;21053;50.848;4.652;2023-04-15T03:11:00;9.60;99.90
34837;DHT22;21053;50.848;4.652;2023-04-15T03:13:29;9.60;99.90
34837;DHT22;21053;50.848;4.652;2023-04-15T03:15:58;9.50;99.90
34837;DHT22;21053;50.848;4.652;2023-04-15T03:18:25;9.50;99.90
34837;DHT22;21053;50.848;4.652;2023-04-15T03:20:52;9.60;99.90
34837;DHT22;21053;50.848;4.652;2023-04-15T03:23:18;9.70;99.90
34837;DHT22;21053;50.848;4.652;2023-04-15T03:25:44;9.70;99.90
34837;DHT22;21053;50.848;4.652;2023-04-15T03:28:12;9.60;99.90
34837;DHT22;21053;50.848;4.652;2023-04-15T03:30:41;9.70;99.90
34837;DHT22;21053;50.848;4.652;2023-04-15T03:33:09;9.60;99.90
34837;DHT22;21053;50.848;4.652;2023-04-15T03:35:37;9.50;99.90
34837;DHT22;21053;50.848;4.652;2023-04-15T03:38:05;9.70;99.90
34837;DHT22;21053;50.848;4.652;2023-04-15T03:40:34;9.70;99.90
34837;DHT22;21053;50.848;4.652;2023-04-15T03:43:02;9.80;99.90
34837;DHT22;21053;50.848;4.652;2023-04-15T03:45:30;9.80;99.90
34837;DHT22;21053;50.848;4.652;2023-04-15T03:47:58;9.70;99.90
34837;DHT22;21053;50.848;4.652;2023-04-15T03:50:27;9.80;99.90
34837;DHT22;21053;50.848;4.652;2023-04-15T03:52:53;9.70;99.90
34837;DHT22;21053;50.848;4.652;2023-04-15T03:55:18;9.70;99.90
34837;DHT22;21053;50.848;4.652;2023-04-15T03:57:47;9.50;99.90
34837;DHT22;21053;50.848;4.652;2023-04-15T04:00:15;9.50;99.90
34837;DHT22;21053;50.848;4.652;2023-04-15T04:02:44;9.50;99.90
34837;DHT22;21053;50.848;4.652;2023-04-15T04:05:10;9.50;99.90
34837;DHT22;21053;50.848;4.652;2023-04-15T04:07:39;9.60;99.90
34837;DHT22;21053;50.848;4.652;2023-04-15T04:10:07;9.40;99.90
34837;DHT22;21053;50.848;4.652;2023-04-15T04:12:36;9.30;99.90
34837;DHT22;21053;50.848;4.652;2023-04-15T04:15:03;9.90;99.90
34837;DHT22;21053;50.848;4.652;2023-04-15T04:17:30;9.40;99.90
34837;DHT22;21053;50.848;4.652;2023-04-15T04:19:55;9.50;99.90
34837;DHT22;21053;50.848;4.652;2023-04-15T04:22:23;9.50;99.90
34837;DHT22;21053;50.848;4.652;2023-04-15T04:24:53;9.50;99.90
34837;DHT22;21053;50.848;4.652;2023-04-15T04:27:19;9.40;99.90
34837;DHT22;21053;50.848;4.652;2023-04-15T04:29:46;9.50;99.90
34837;DHT22;21053;50.848;4.652;2023-04-15T04:32:16;9.60;99.90
34837;DHT22;21053;50.848;4.652;2023-04-15T04:34:42;9.50;99.90
34837;DHT22;21053;50.848;4.652;2023-04-15T04:37:10;9.50;99.90
34837;DHT22;21053;50.848;4.652;2023-04-15T04:39:39;10.00;99.90
34837;DHT22;21053;50.848;4.652;2023-04-15T04:42:11;9.40;99.90
34837;DHT22;21053;50.848;4.652;2023-04-15T04:44:38;9.40;99.90
34837;DHT22;21053;50.848;4.652;2023-04-15T04:47:07;9.50;99.90
34837;DHT22;21053;50.848;4.652;2023-04-15T04:49:33;9.60;99.90
34837;DHT22;21053;50.848;4.652;2023-04-15T04:52:02;9.40;99.90
34837;DHT22;21053;50.848;4.652;2023-04-15T04:54:28;9.30;99.90
34837;DHT22;21053;50.848;4.652;2023-04-15T04:56:58;9.40;99.90
34837;DHT22;21053;50.848;4.652;2023-04-15T04:59:26;9.40;99.90
34837;DHT22;21053;50.848;4.652;2023-04-15T05:01:53;9.50;99.90
34837;DHT22;21053;50.848;4.652;2023-04-15T05:04:19;9.40;99.90
34837;DHT22;21053;50.848;4.652;2023-04-15T05:06:46;10.00;99.90
34837;DHT22;21053;50.848;4.652;2023-04-15T05:09:14;9.40;99.90
34837;DHT22;21053;50.848;4.652;2023-04-15T05:11:41;9.50;99.90
34837;DHT22;21053;50.848;4.652;2023-04-15T05:14:10;9.60;99.90
34837;DHT22;21053;50.848;4.652;2023-04-15T05:16:36;9.50;99.90
34837;DHT22;21053;50.848;4.652;2023-04-15T05:19:03;9.50;99.90
34837;DHT22;21053;50.848;4.652;2023-04-15T05:21:30;9.40;99.90
34837;DHT22;21053;50.848;4.652;2023-04-15T05:23:56;9.50;99.90
34837;DHT22;21053;50.848;4.652;2023-04-15T05:26:25;9.70;99.90
34837;DHT22;21053;50.848;4.652;2023-04-15T05:28:52;9.70;99.90
34837;DHT22;21053;50.848;4.652;2023-04-15T05:31:19;9.60;99.90
34837;DHT22;21053;50.848;4.652;2023-04-15T05:33:45;9.70;99.90
34837;DHT22;21053;50.848;4.652;2023-04-15T05:36:11;9.70;99.90
34837;DHT22;21053;50.848;4.652;2023-04-15T05:38:40;9.70;99.90
34837;DHT22;21053;50.848;4.652;2023-04-15T05:41:09;9.80;99.90
34837;DHT22;21053;50.848;4.652;2023-04-15T05:43:38;9.80;99.90
34837;DHT22;21053;50.848;4.652;2023-04-15T05:46:07;9.70;99.90
34837;DHT22;21053;50.848;4.652;2023-04-15T05:48:35;9.90;99.90
34837;DHT22;21053;50.848;4.652;2023-04-15T05:51:01;9.90;99.90
34837;DHT22;21053;50.848;4.652;2023-04-15T05:53:29;10.10;99.90
34837;DHT22;21053;50.848;4.652;2023-04-15T05:55:58;10.30;99.90
34837;DHT22;21053;50.848;4.652;2023-04-15T05:58:27;10.20;99.90
34837;DHT22;21053;50.848;4.652;2023-04-15T06:00:53;10.30;99.90
34837;DHT22;21053;50.848;4.652;2023-04-15T06:03:18;10.20;99.90
34837;DHT22;21053;50.848;4.652;2023-04-15T06:05:46;10.10;99.90
34837;DHT22;21053;50.848;4.652;2023-04-15T06:08:15;10.10;99.90
34837;DHT22;21053;50.848;4.652;2023-04-15T06:10:42;10.10;99.90
34837;DHT22;21053;50.848;4.652;2023-04-15T06:13:08;10.20;99.90
34837;DHT22;21053;50.848;4.652;2023-04-15T06:15:35;10.20;99.90
34837;DHT22;21053;50.848;4.652;2023-04-15T06:18:04;10.20;99.90
34837;DHT22;21053;50.848;4.652;2023-04-15T06:20:32;10.40;99.90
34837;DHT22;21053;50.848;4.652;2023-04-15T06:23:01;10.70;99.90
34837;DHT22;21053;50.848;4.652;2023-04-15T06:25:33;10.60;99.90
34837;DHT22;21053;50.848;4.652;2023-04-15T06:27:58;10.80;99.90
34837;DHT22;21053;50.848;4.652;2023-04-15T06:30:30;10.90;99.90
34837;DHT22;21053;50.848;4.652;2023-04-15T06:32:58;11.00;99.90
34837;DHT22;21053;50.848;4.652;2023-04-15T06:35:25;11.10;99.90
34837;DHT22;21053;50.848;4.652;2023-04-15T06:37:52;11.00;99.90
34837;DHT22;21053;50.848;4.652;2023-04-15T06:40:18;11.10;99.90
34837;DHT22;21053;50.848;4.652;2023-04-15T06:42:45;10.80;99.90
34837;DHT22;21053;50.848;4.652;2023-04-15T06:45:14;11.10;99.90
34837;DHT22;21053;50.848;4.652;2023-04-15T06:47:42;11.30;99.90
34837;DHT22;21053;50.848;4.652;2023-04-15T06:50:14;11.60;99.90
34837;DHT22;21053;50.848;4.652;2023-04-15T06:52:42;11.70;99.90
34837;DHT22;21053;50.848;4.652;2023-04-15T06:55:09;11.90;99.90
34837;DHT22;21053;50.848;4.652;2023-04-15T06:57:38;12.10;99.90
34837;DHT22;21053;50.848;4.652;2023-04-15T07:00:04;12.10;99.90
34837;DHT22;21053;50.848;4.652;2023-04-15T07:02:33;12.50;99.90
34837;DHT22;21053;50.848;4.652;2023-04-15T07:05:02;12.10;99.90
34837;DHT22;21053;50.848;4.652;2023-04-15T07:07:30;12.40;99.90
34837;DHT22;21053;50.848;4.652;2023-04-15T07:09:57;12.30;99.90
34837;DHT22;21053;50.848;4.652;2023-04-15T07:12:24;12.30;99.90
34837;DHT22;21053;50.848;4.652;2023-04-15T07:14:50;12.20;99.90
34837;DHT22;21053;50.848;4.652;2023-04-15T07:17:17;12.50;99.90
34837;DHT22;21053;50.848;4.652;2023-04-15T07:19:47;12.50;99.90
34837;DHT22;21053;50.848;4.652;2023-04-15T07:22:13;12.50;99.90
34837;DHT22;21053;50.848;4.652;2023-04-15T07:24:40;12.80;99.90
34837;DHT22;21053;50.848;4.652;2023-04-15T07:27:06;13.20;99.90
34837;DHT22;21053;50.848;4.652;2023-04-15T07:29:34;13.50;99.30
34837;DHT22;21053;50.848;4.652;2023-04-15T07:32:00;13.90;98.30
34837;DHT22;21053;50.848;4.652;2023-04-15T07:34:26;14.50;96.40
34837;DHT22;21053;50.848;4.652;2023-04-15T07:36:53;14.80;95.50
34837;DHT22;21053;50.848;4.652;2023-04-15T07:39:21;15.20;95.10
34837;DHT22;21053;50.848;4.652;2023-04-15T07:41:49;15.90;94.70
34837;DHT22;21053;50.848;4.652;2023-04-15T07:44:20;16.10;91.70
34837;DHT22;21053;50.848;4.652;2023-04-15T07:46:47;16.90;89.20
34837;DHT22;21053;50.848;4.652;2023-04-15T07:49:16;17.50;86.00
34837;DHT22;21053;50.848;4.652;2023-04-15T07:51:47;17.60;87.00
34837;DHT22;21053;50.848;4.652;2023-04-15T07:54:13;17.80;87.50
34837;DHT22;21053;50.848;4.652;2023-04-15T07:56:39;18.00;85.10
34837;DHT22;21053;50.848;4.652;2023-04-15T07:59:08;17.70;84.80
34837;DHT22;21053;50.848;4.652;2023-04-15T08:01:34;17.70;84.10
34837;DHT22;21053;50.848;4.652;2023-04-15T08:04:01;18.20;82.70
34837;DHT22;21053;50.848;4.652;2023-04-15T08:06:28;19.40;80.10
34837;DHT22;21053;50.848;4.652;2023-04-15T08:08:54;21.10;73.90
34837;DHT22;21053;50.848;4.652;2023-04-15T08:11:22;22.30;70.40
34837;DHT22;21053;50.848;4.652;2023-04-15T08:13:51;22.80;67.00
34837;DHT22;21053;50.848;4.652;2023-04-15T08:16:26;23.50;62.80
34837;DHT22;21053;50.848;4.652;2023-04-15T08:18:54;25.80;57.00
34837;DHT22;21053;50.848;4.652;2023-04-15T08:21:22;26.70;55.70
34837;DHT22;21053;50.848;4.652;2023-04-15T08:23:52;27.60;51.70
34837;DHT22;21053;50.848;4.652;2023-04-15T08:26:19;28.70;49.30
34837;DHT22;21053;50.848;4.652;2023-04-15T08:28:45;28.40;46.80
34837;DHT22;21053;50.848;4.652;2023-04-15T08:31:13;29.60;45.60
34837;DHT22;21053;50.848;4.652;2023-04-15T08:33:39;29.50;46.00
34837;DHT22;21053;50.848;4.652;2023-04-15T08:36:05;29.00;45.60
34837;DHT22;21053;50.848;4.652;2023-04-15T08:38:35;28.60;44.30
34837;DHT22;21053;50.848;4.652;2023-04-15T08:41:08;28.50;44.50
34837;DHT22;21053;50.848;4.652;2023-04-15T08:43:48;29.40;45.70
34837;DHT22;21053;50.848;4.652;2023-04-15T08:46:18;28.40;46.60
34837;DHT22;21053;50.848;4.652;2023-04-15T08:48:47;28.60;44.50
34837;DHT22;21053;50.848;4.652;2023-04-15T08:51:17;28.90;44.20
34837;DHT22;21053;50.848;4.652;2023-04-15T08:53:47;29.70;44.30
34837;DHT22;21053;50.848;4.652;2023-04-15T08:56:17;29.50;42.20
34837;DHT22;21053;50.848;4.652;2023-04-15T08:58:45;28.90;42.60
34837;DHT22;21053;50.848;4.652;2023-04-15T09:01:11;29.50;42.50
34837;DHT22;21053;50.848;4.652;2023-04-15T09:03:38;28.90;43.90
34837;DHT22;21053;50.848;4.652;2023-04-15T09:06:05;29.20;42.80
34837;DHT22;21053;50.848;4.652;2023-04-15T09:08:33;29.60;43.80
34837;DHT22;21053;50.848;4.652;2023-04-15T09:11:04;29.60;41.90
34837;DHT22;21053;50.848;4.652;2023-04-15T09:13:33;28.00;45.90
34837;DHT22;21053;50.848;4.652;2023-04-15T09:16:04;27.70;44.80
34837;DHT22;21053;50.848;4.652;2023-04-15T09:18:33;27.60;45.60
34837;DHT22;21053;50.848;4.652;2023-04-15T09:21:12;27.50;46.10
34837;DHT22;21053;50.848;4.652;2023-04-15T09:23:55;27.40;45.30
34837;DHT22;21053;50.848;4.652;2023-04-15T09:26:36;27.30;45.20
34837;DHT22;21053;50.848;4.652;2023-04-15T09:29:10;27.10;45.60
34837;DHT22;21053;50.848;4.652;2023-04-15T09:31:42;27.10;46.60
34837;DHT22;21053;50.848;4.652;2023-04-15T09:34:13;28.70;44.40
34837;DHT22;21053;50.848;4.652;2023-04-15T09:37:00;28.80;43.80
34837;DHT22;21053;50.848;4.652;2023-04-15T09:39:44;28.10;43.90
34837;DHT22;21053;50.848;4.652;2023-04-15T09:42:11;28.10;43.70
34837;DHT22;21053;50.848;4.652;2023-04-15T09:44:39;27.70;45.50
34837;DHT22;21053;50.848;4.652;2023-04-15T09:47:08;27.40;45.90
34837;DHT22;21053;50.848;4.652;2023-04-15T09:49:35;26.90;45.60
34837;DHT22;21053;50.848;4.652;2023-04-15T09:52:01;27.00;46.10
34837;DHT22;21053;50.848;4.652;2023-04-15T09:54:37;27.70;46.80
34837;DHT22;21053;50.848;4.652;2023-04-15T09:57:12;28.40;45.30
34837;DHT22;21053;50.848;4.652;2023-04-15T10:02:13;27.50;43.90
34837;DHT22;21053;50.848;4.652;2023-04-15T10:04:42;27.70;45.00
34837;DHT22;21053;50.848;4.652;2023-04-15T10:07:11;28.20;42.90
34837;DHT22;21053;50.848;4.652;2023-04-15T10:09:42;28.60;43.20
34837;DHT22;21053;50.848;4.652;2023-04-15T10:12:15;28.80;42.90
34837;DHT22;21053;50.848;4.652;2023-04-15T10:14:43;29.00;40.80
34837;DHT22;21053;50.848;4.652;2023-04-15T10:17:11;28.40;42.00
34837;DHT22;21053;50.848;4.652;2023-04-15T10:19:41;28.30;42.70
34837;DHT22;21053;50.848;4.652;2023-04-15T10:22:09;27.80;43.80
34837;DHT22;21053;50.848;4.652;2023-04-15T10:24:38;27.90;43.40
34837;DHT22;21053;50.848;4.652;2023-04-15T10:27:07;27.70;42.50
34837;DHT22;21053;50.848;4.652;2023-04-15T10:29:36;27.60;42.60
34837;DHT22;21053;50.848;4.652;2023-04-15T10:32:05;28.30;43.20
34837;DHT22;21053;50.848;4.652;2023-04-15T10:34:33;27.80;41.30
34837;DHT22;21053;50.848;4.652;2023-04-15T10:39:38;28.20;41.60
34837;DHT22;21053;50.848;4.652;2023-04-15T10:44:43;28.50;41.60
34837;DHT22;21053;50.848;4.652;2023-04-15T10:47:16;28.90;40.20
34837;DHT22;21053;50.848;4.652;2023-04-15T10:49:50;29.30;41.00
34837;DHT22;21053;50.848;4.652;2023-04-15T10:52:29;29.60;40.40
34837;DHT22;21053;50.848;4.652;2023-04-15T10:55:13;29.50;40.80
34837;DHT22;21053;50.848;4.652;2023-04-15T10:57:42;28.20;38.70
34837;DHT22;21053;50.848;4.652;2023-04-15T11:00:11;28.60;39.60
34837;DHT22;21053;50.848;4.652;2023-04-15T11:02:58;28.80;39.80
34837;DHT22;21053;50.848;4.652;2023-04-15T11:05:50;28.70;38.70
34837;DHT22;21053;50.848;4.652;2023-04-15T11:08:17;28.60;41.80
34837;DHT22;21053;50.848;4.652;2023-04-15T11:13:14;29.50;41.70
34837;DHT22;21053;50.848;4.652;2023-04-15T11:15:46;30.20;39.30
34837;DHT22;21053;50.848;4.652;2023-04-15T11:18:28;31.90;40.20
34837;DHT22;21053;50.848;4.652;2023-04-15T11:21:01;30.70;35.20
34837;DHT22;21053;50.848;4.652;2023-04-15T11:23:42;28.80;35.60
34837;DHT22;21053;50.848;4.652;2023-04-15T11:26:12;27.90;37.50
34837;DHT22;21053;50.848;4.652;2023-04-15T11:28:44;28.50;38.60
34837;DHT22;21053;50.848;4.652;2023-04-15T11:31:15;28.20;39.10
34837;DHT22;21053;50.848;4.652;2023-04-15T11:33:58;28.30;35.30
34837;DHT22;21053;50.848;4.652;2023-04-15T11:38:46;29.80;35.50
34837;DHT22;21053;50.848;4.652;2023-04-15T11:41:13;27.80;37.50
34837;DHT22;21053;50.848;4.652;2023-04-15T11:43:41;27.10;37.70
34837;DHT22;21053;50.848;4.652;2023-04-15T11:46:14;27.00;39.60
34837;DHT22;21053;50.848;4.652;2023-04-15T11:48:42;27.20;37.10
34837;DHT22;21053;50.848;4.652;2023-04-15T11:51:12;28.00;38.10
34837;DHT22;21053;50.848;4.652;2023-04-15T11:53:48;28.00;37.30
34837;DHT22;21053;50.848;4.652;2023-04-15T11:56:23;26.90;37.40
34837;DHT22;21053;50.848;4.652;2023-04-15T12:01:35;26.60;38.20
34837;DHT22;21053;50.848;4.652;2023-04-15T12:04:15;27.40;39.80
34837;DHT22;21053;50.848;4.652;2023-04-15T12:06:49;28.80;37.60
34837;DHT22;21053;50.848;4.652;2023-04-15T12:09:18;28.20;37.50
34837;DHT22;21053;50.848;4.652;2023-04-15T12:14:28;27.10;40.00
34837;DHT22;21053;50.848;4.652;2023-04-15T12:16:58;25.40;40.10
34837;DHT22;21053;50.848;4.652;2023-04-15T12:21:17;23.10;41.30
34837;DHT22;21053;50.848;4.652;2023-04-15T12:23:51;21.90;43.60
34837;DHT22;21053;50.848;4.652;2023-04-15T12:26:29;21.10;45.70
34837;DHT22;21053;50.848;4.652;2023-04-15T12:29:00;20.50;46.40
34837;DHT22;21053;50.848;4.652;2023-04-15T12:31:26;20.30;48.40
34837;DHT22;21053;50.848;4.652;2023-04-15T12:33:56;20.50;49.40
34837;DHT22;21053;50.848;4.652;2023-04-15T12:36:24;20.60;47.80
34837;DHT22;21053;50.848;4.652;2023-04-15T12:38:53;20.10;49.00
34837;DHT22;21053;50.848;4.652;2023-04-15T12:41:19;19.90;50.60
34837;DHT22;21053;50.848;4.652;2023-04-15T12:43:47;20.30;49.90
34837;DHT22;21053;50.848;4.652;2023-04-15T12:46:15;20.40;48.50
34837;DHT22;21053;50.848;4.652;2023-04-15T12:48:44;20.40;45.00
34837;DHT22;21053;50.848;4.652;2023-04-15T12:51:13;20.30;45.80
34837;DHT22;21053;50.848;4.652;2023-04-15T12:53:40;20.30;46.50
34837;DHT22;21053;50.848;4.652;2023-04-15T12:56:09;19.70;45.30
34837;DHT22;21053;50.848;4.652;2023-04-15T12:58:36;19.50;45.60
34837;DHT22;21053;50.848;4.652;2023-04-15T13:01:04;19.50;48.30
34837;DHT22;21053;50.848;4.652;2023-04-15T13:03:34;19.60;48.60
34837;DHT22;21053;50.848;4.652;2023-04-15T13:06:02;19.60;48.30
34837;DHT22;21053;50.848;4.652;2023-04-15T13:08:32;19.50;48.40
34837;DHT22;21053;50.848;4.652;2023-04-15T13:11:01;19.50;47.00
34837;DHT22;21053;50.848;4.652;2023-04-15T13:13:29;19.20;46.00
34837;DHT22;21053;50.848;4.652;2023-04-15T13:15:59;19.20;47.70
34837;DHT22;21053;50.848;4.652;2023-04-15T13:18:28;19.00;49.20
34837;DHT22;21053;50.848;4.652;2023-04-15T13:20:58;18.80;50.30
34837;DHT22;21053;50.848;4.652;2023-04-15T13:25:38;18.90;49.60
34837;DHT22;21053;50.848;4.652;2023-04-15T13:28:11;18.40;50.80
34837;DHT22;21053;50.848;4.652;2023-04-15T13:30:37;18.50;51.10
34837;DHT22;21053;50.848;4.652;2023-04-15T13:33:06;18.80;49.60
34837;DHT22;21053;50.848;4.652;2023-04-15T13:35:33;18.50;49.10
34837;DHT22;21053;50.848;4.652;2023-04-15T13:38:02;18.40;50.00
34837;DHT22;21053;50.848;4.652;2023-04-15T13:40:29;18.40;52.10
34837;DHT22;21053;50.848;4.652;2023-04-15T13:42:56;18.70;51.10
34837;DHT22;21053;50.848;4.652;2023-04-15T13:45:23;18.70;50.80
34837;DHT22;21053;50.848;4.652;2023-04-15T13:47:55;18.80;51.20
34837;DHT22;21053;50.848;4.652;2023-04-15T13:50:23;18.80;51.80
34837;DHT22;21053;50.848;4.652;2023-04-15T13:52:52;19.00;51.90
34837;DHT22;21053;50.848;4.652;2023-04-15T13:55:19;18.90;52.70
34837;DHT22;21053;50.848;4.652;2023-04-15T13:57:46;18.70;52.50
34837;DHT22;21053;50.848;4.652;2023-04-15T14:00:12;18.40;52.40
34837;DHT22;21053;50.848;4.652;2023-04-15T14:02:39;18.30;53.80
34837;DHT22;21053;50.848;4.652;2023-04-15T14:05:10;18.40;55.10
34837;DHT22;21053;50.848;4.652;2023-04-15T14:07:36;18.70;54.60
34837;DHT22;21053;50.848;4.652;2023-04-15T14:10:06;18.80;54.10
34837;DHT22;21053;50.848;4.652;2023-04-15T14:12:32;18.30;55.20
34837;DHT22;21053;50.848;4.652;2023-04-15T14:14:58;18.10;52.90
34837;DHT22;21053;50.848;4.652;2023-04-15T14:17:27;18.00;54.80
34837;DHT22;21053;50.848;4.652;2023-04-15T14:19:58;18.00;54.50
34837;DHT22;21053;50.848;4.652;2023-04-15T14:22:24;17.70;56.00
34837;DHT22;21053;50.848;4.652;2023-04-15T14:24:52;17.70;55.40
34837;DHT22;21053;50.848;4.652;2023-04-15T14:27:22;17.50;55.20
34837;DHT22;21053;50.848;4.652;2023-04-15T14:29:49;17.50;54.10
34837;DHT22;21053;50.848;4.652;2023-04-15T14:32:18;17.40;54.70
34837;DHT22;21053;50.848;4.652;2023-04-15T14:34:45;17.10;53.20
34837;DHT22;21053;50.848;4.652;2023-04-15T14:37:12;17.30;54.00
34837;DHT22;21053;50.848;4.652;2023-04-15T14:39:41;17.30;55.90
34837;DHT22;21053;50.848;4.652;2023-04-15T14:42:09;17.30;56.30
34837;DHT22;21053;50.848;4.652;2023-04-15T14:44:38;17.30;56.30
34837;DHT22;21053;50.848;4.652;2023-04-15T14:47:06;17.00;57.90
34837;DHT22;21053;50.848;4.652;2023-04-15T14:49:34;16.80;57.20
34837;DHT22;21053;50.848;4.652;2023-04-15T14:52:02;16.90;58.00
34837;DHT22;21053;50.848;4.652;2023-04-15T14:54:30;16.70;57.60
34837;DHT22;21053;50.848;4.652;2023-04-15T14:56:58;16.70;58.20
34837;DHT22;21053;50.848;4.652;2023-04-15T14:59:25;16.70;57.10
34837;DHT22;21053;50.848;4.652;2023-04-15T15:01:53;16.70;58.00
34837;DHT22;21053;50.848;4.652;2023-04-15T15:04:19;16.50;56.70
34837;DHT22;21053;50.848;4.652;2023-04-15T15:06:48;16.30;58.30
34837;DHT22;21053;50.848;4.652;2023-04-15T15:09:16;16.30;55.70
34837;DHT22;21053;50.848;4.652;2023-04-15T15:11:44;16.40;58.00
34837;DHT22;21053;50.848;4.652;2023-04-15T15:14:11;16.40;59.70
34837;DHT22;21053;50.848;4.652;2023-04-15T15:16:39;16.50;59.90
34837;DHT22;21053;50.848;4.652;2023-04-15T15:19:05;16.50;60.20
34837;DHT22;21053;50.848;4.652;2023-04-15T15:21:31;16.40;58.70
34837;DHT22;21053;50.848;4.652;2023-04-15T15:23:57;16.10;58.50
34837;DHT22;21053;50.848;4.652;2023-04-15T15:26:23;16.20;57.90
34837;DHT22;21053;50.848;4.652;2023-04-15T15:28:48;16.20;57.60
34837;DHT22;21053;50.848;4.652;2023-04-15T15:31:17;16.40;57.40
34837;DHT22;21053;50.848;4.652;2023-04-15T15:33:42;16.30;57.90
34837;DHT22;21053;50.848;4.652;2023-04-15T15:36:09;16.20;58.50
34837;DHT22;21053;50.848;4.652;2023-04-15T15:38:39;16.30;58.60
34837;DHT22;21053;50.848;4.652;2023-04-15T15:41:05;16.30;57.90
34837;DHT22;21053;50.848;4.652;2023-04-15T15:43:35;16.20;58.00
34837;DHT22;21053;50.848;4.652;2023-04-15T15:46:03;16.20;59.70
34837;DHT22;21053;50.848;4.652;2023-04-15T15:48:32;16.30;60.90
34837;DHT22;21053;50.848;4.652;2023-04-15T15:50:58;16.30;61.50
34837;DHT22;21053;50.848;4.652;2023-04-15T15:53:24;16.10;62.40
34837;DHT22;21053;50.848;4.652;2023-04-15T15:55:51;16.10;62.60
34837;DHT22;21053;50.848;4.652;2023-04-15T15:58:18;16.00;63.90
34837;DHT22;21053;50.848;4.652;2023-04-15T16:00:44;16.00;64.70
34837;DHT22;21053;50.848;4.652;2023-04-15T16:03:11;15.90;64.20
34837;DHT22;21053;50.848;4.652;2023-04-15T16:05:40;15.80;65.40
34837;DHT22;21053;50.848;4.652;2023-04-15T16:08:08;15.90;65.30
34837;DHT22;21053;50.848;4.652;2023-04-15T16:10:34;16.00;63.70